Terminal Aerodrome Forecast
Issued by NWS Brownsville, TX

Home | Current Version | Previous Version | Text Only | Print | Product List | Glossary On
Versions: 1 2 3 4 5 6 7 8 9 10 11 12 13 14 15 16
615
FTUS44 KBRO 202058 AAA
TAFMFE
TAF AMD
KMFE 202058Z 2021/2118 14014G25KT P6SM SCT070
     FM210200 14010G21KT P6SM FEW025
     FM211200 14007KT P6SM BKN250
     FM211500 15012KT P6SM FEW250=

USA.gov is the U.S. government's official web portal to all federal, state and local government web resources and services.